Aktualne dane pomiarowe

Uwaga, wersja testowa! Automatyczne pobieranie danych za pomocą narzędzi lub skryptów to umożliwiających jest zabronione.

Dane meteo z obszaru Polski uzyskane na podstawie depesz SYNOP pobieranych co godzinę z NWS. Najedź myszką na symbol przedstawiony w tabeli, aby uzyskać informacje co do jego znaczenia. Prosimy pamiętać, że to testowa wersja strony, która jeszcze nie jest ukończona. Stworzono również jest krótki FAQ dotyczący korzystania z tej podstrony Anomalie temperatury w chwili obecnej odniesione są do okresu referencyjnego 1951-2016. Okres ten będzie później zmieniony na 1981-2010. Kliknij ikonę aby pobrać plik CSV. Kliknij ikonę aby wygenerować mapę synoptyczną dla danego terminu.

Wybierz Datę:    

        

Sandomierz (12585)

Dane terminowe dla wybranej stacji. Kliknij datę, aby otrzymać dane z tego terminu dla wszystkich stacji.

TemperaturaZachmurzenieWiatrCiśnienieOpadyPogoda
 Data t td wb tx tn tg rh  Nt Nl Cl Cm Ch ws wd g1 g2 wx mslp ppp ch 24h 12h t ww ww w1 w2  
2019-07-07 23:00:00 13.4 5.8 9.1--- 6050.0--3wx--31010.1 984.1 1.4---------
2019-07-07 22:00:00 12.9 5.6 8.8--- 6150.0--3wx--31009.5 983.5 1.2---------
2019-07-07 21:00:00 13.7 6.5 9.5--- 6250.0--3wx--31009.0 983.1 1.4---------
2019-07-07 20:00:00 14.8 6.6 10.1--- 5845.0--3wx--31008.5 982.7 1.1---------
2019-07-07 19:00:00 15.5 8.7 11.4--- 6445.0--2wx---1008.0 982.3 1.2---------
2019-07-07 18:00:00 17.5 8.1 12.0 21.2 16.1- 5440.0--2wx---1007.2 981.7 0.3---------
2019-07-07 17:00:00 18.6 8.0 12.5--- 5045.0--3wx---1007.0 981.6 0.3---------
2019-07-07 16:00:00 19.6 8.9 13.4--- 5030.0--4wx---1006.4 981.1 -0.5---------
2019-07-07 15:00:00 19.4 10.1 13.8--- 5535.0--4wx-1241006.8 981.4 -0.2---------
2019-07-07 14:00:00 18.1 11.4 13.9--- 6545.0--5wx111251006.8 981.3 -0.1---------
2019-07-07 13:00:00 16.3 12.1 13.5--- 7630.0--5wx---1007.3 981.6 0.5---wx-----
2019-07-07 12:00:00 17.9 13.4 14.9--- 7535.0--5wx--51007.1 981.6 0.5--6------
2019-07-07 11:00:00 18.8 13.9 15.6--- 7340.0--4wx---1006.8 981.4 0.9---------
2019-07-07 10:00:00 20.4 14.1 16.3--- 6735.0--3wx--31006.4 981.1 0.6---wx-----
2019-07-07 09:00:00 18.0 13.7 15.1--- 7645.0--2wx--21006.6 981.1 0.4---------
2019-07-07 08:00:00 19.1 13.1 15.2--- 6850.0--5wx--51005.9 980.5 0.4---------
2019-07-07 07:00:00 19.3 13.7 15.6--- 7035.0--2wx--21005.9 980.5 0.9---------
2019-07-07 06:00:00 17.4 13.1 14.6 22.2 14.7 15 7635.0--2wx-1021006.2 980.7 1.5--12----- 3.6
2019-07-07 05:00:00 17.1 13.4 14.6--- 7935.0--1wx--11005.6 980.1 0.7---------
2019-07-07 04:00:00 15.5 13.2 13.9--- 8629.0--1wx--11005.3 979.6 0.6---------
2019-07-07 03:00:00 14.9 12.8 13.4--- 8724.0--4wx-1041004.9 979.2 0.0---------
2019-07-07 02:00:00 16.2 12.9 14.0--- 8122.0--5wx-1051005.0 979.4 0.0---wx-----
2019-07-07 01:00:00 18.9 11.9 14.5--- 6445.0--3wx---1004.4 979.0 -0.3---------
2019-07-07 00:00:00 19.2 13.1 15.3--- 6835.0--3wx--31004.5 979.2 -0.8- 0.06------
2019-07-06 23:00:00 18.0 12.9 14.7--- 7230.0--2wx--21004.8 979.4 -1.1---------
2019-07-06 22:00:00 19.0 12.7 15.0--- 6730.0--2wx--21004.7 979.3 -1.8---------
2019-07-06 21:00:00 18.6 12.8 14.9--- 6930.0--1wx--11005.4 980.0 -1.4---------
2019-07-06 20:00:00 19.6 13.1 15.4--- 6650.0--2wx--21005.8 980.5 -1.3---------
2019-07-06 19:00:00 20.7 13.4 16.0--- 6330.0--2wx--21006.3 981.1 -1.0---------
2019-07-06 18:00:00 22.2 13.3 16.6 24.8 16.2- 5717.0--1wx--11006.5 981.4 -1.3- 0.012------
2019-07-06 17:00:00 23.6 11.9 16.5--- 4840.0--2wx--21006.8 981.8 -1.4---------
2019-07-06 16:00:00 24.5 11.1 16.5--- 4340.0--1wx--11007.0 982.1 -1.5---------
2019-07-06 15:00:00 23.9 12.5 16.9--- 4945.0--1wx--11007.7 982.7 -1.6---------
2019-07-06 14:00:00 23.8 12.1 16.7--- 4830.0--2wx--21008.2 983.2 -1.7---------
2019-07-06 13:00:00 24.1 11.8 16.6--- 4628.0--3wx--31008.6 983.6 -1.6---------
2019-07-06 12:00:00 21.9 11.9 15.8--- 5335.0--3wx--31009.5 984.3 -1.6- 0.06------
2019-07-06 11:00:00 21.8 11.8 15.7--- 5335.0--3wx--31010.2 984.9 -1.4---------
2019-07-06 10:00:00 20.6 11.8 15.2--- 5735.0--3wx--31010.6 985.2 -1.1---------
2019-07-06 09:00:00 19.5 11.8 14.7--- 6135.0--4wx--41011.4 985.9 -0.5---------
2019-07-06 08:00:00 18.5 12.3 14.5--- 6740.0--3wx--31011.9 986.3 -0.3---------
2019-07-06 07:00:00 16.8 12.1 13.7--- 7435.0--2wx--21012.0 986.3 -0.3---------
2019-07-06 06:00:00 16.8 11.7 13.5 19.1 10.8 10 7230.0--3wx--31012.1 986.4 -0.1- 0.012----- 1.4
2019-07-06 05:00:00 15.2 11.4 12.7--- 7845.0--2wx--21012.5 986.6 0.0---------
2019-07-06 04:00:00 13.7 10.5 11.6--- 8140.0--2wx--21012.6 986.6 -0.2---------
2019-07-06 03:00:00 12.1 9.7 10.5--- 8545.0--3wx---1012.7 986.5 -0.5---------
2019-07-06 02:00:00 10.8 8.6 9.3--- 8645.0--2wx--21012.9 986.6 -0.3---------
2019-07-06 01:00:00 13.3 9.4 10.8--- 7750.0--2wx--21012.9 986.8 -0.1---------
2019-07-06 00:00:00 12.4 8.9 10.2--- 7950.0--2wx--21013.2 987.0 0.3- 0.06------
14.3 ms

 

Print Friendly, PDF & Email